Terminal Aerodrome Forecast
Issued by NWS Melbourne, FL

Home | Current Version | Previous Version | Text Only | Print | Product List | Glossary On
Versions: 1 2 3 4 5 6 7 8 9 10 11 12 13
068
FTUS42 KMLB 121132
TAFMLB
TAF
KMLB 121132Z 1212/1312 21003KT P6SM SKC
     FM121500 22008KT P6SM SKC
     FM121800 24012G18KT P6SM FEW250
     FM122200 23008KT P6SM SKC=

USA.gov is the U.S. government's official web portal to all federal, state and local government web resources and services.